createdAt,value
2023-05-11T00:02:19.320Z,34.17
2023-05-11T00:04:48.635Z,32.13
2023-05-11T00:07:16.515Z,39.80
2023-05-11T00:09:44.524Z,40.42
2023-05-11T00:12:13.349Z,34.58
2023-05-11T00:14:41.449Z,36.83
2023-05-11T00:17:09.312Z,34.65
2023-05-11T00:19:37.253Z,35.35
2023-05-11T00:22:06.427Z,37.17
2023-05-11T00:24:34.281Z,34.42
2023-05-11T00:27:02.203Z,36.47
2023-05-11T00:29:30.116Z,36.58
2023-05-11T00:31:58.101Z,34.17
2023-05-11T00:34:25.991Z,42.38
2023-05-11T00:36:53.960Z,32.67
2023-05-11T00:39:23.271Z,39.20
2023-05-11T00:41:51.186Z,34.13
2023-05-11T00:44:19.071Z,41.13
2023-05-11T00:46:46.992Z,39.72
2023-05-11T00:49:17.336Z,42.72
2023-05-11T00:51:45.332Z,36.03
2023-05-11T00:54:15.636Z,46.50
2023-05-11T00:56:45.091Z,45.88
2023-05-11T00:59:14.106Z,40.17
2023-05-11T01:01:42.091Z,43.38
2023-05-11T01:04:10.683Z,35.83
2023-05-11T01:06:46.738Z,43.78
2023-05-11T01:09:25.581Z,44.60
2023-05-11T01:12:01.643Z,48.92
2023-05-11T01:14:40.513Z,33.70
2023-05-11T01:17:13.213Z,36.72
2023-05-11T01:19:44.496Z,48.05
2023-05-11T01:22:27.111Z,38.63
2023-05-11T01:27:58.447Z,38.23
2023-05-11T01:30:30.775Z,52.10
2023-05-11T01:33:04.510Z,38.05
2023-05-11T01:35:34.265Z,35.67
2023-05-11T01:38:05.312Z,44.22
2023-05-11T01:40:37.149Z,35.55
2023-05-11T01:43:09.278Z,53.17
2023-05-11T01:45:44.935Z,36.28
2023-05-11T01:48:15.684Z,43.67
2023-05-11T01:50:44.105Z,43.03
2023-05-11T01:53:13.379Z,50.05
2023-05-11T01:55:42.919Z,49.33
2023-05-11T01:58:12.080Z,49.00
2023-05-11T02:00:42.125Z,53.50
2023-05-11T02:03:11.164Z,47.75
2023-05-11T02:05:40.843Z,45.53
2023-05-11T02:08:09.752Z,49.72
2023-05-11T02:10:39.883Z,45.60
2023-05-11T02:13:09.915Z,39.08
2023-05-11T02:15:41.462Z,50.42
2023-05-11T02:18:15.258Z,47.30
2023-05-11T02:20:46.030Z,47.50
2023-05-11T02:23:14.960Z,44.72
2023-05-11T02:25:44.034Z,40.10
2023-05-11T02:28:11.999Z,36.90
2023-05-11T02:30:45.748Z,40.30
2023-05-11T02:33:21.480Z,43.28
2023-05-11T02:35:52.178Z,42.92
2023-05-11T02:38:21.170Z,39.13
2023-05-11T02:40:52.628Z,35.88
2023-05-11T02:43:34.838Z,41.45
2023-05-11T02:46:07.551Z,34.97
2023-05-11T02:49:02.965Z,34.15
2023-05-11T02:51:35.943Z,31.92
2023-05-11T02:54:07.222Z,32.50
2023-05-11T02:56:35.686Z,32.13
2023-05-11T02:59:04.198Z,34.95
2023-05-11T03:01:32.327Z,36.35
2023-05-11T03:04:04.732Z,36.60
2023-05-11T03:06:33.298Z,34.95
2023-05-11T03:09:02.252Z,32.90
2023-05-11T03:11:30.274Z,31.60
2023-05-11T03:13:58.884Z,37.20
2023-05-11T03:16:27.960Z,38.28
2023-05-11T03:18:56.659Z,33.75
2023-05-11T03:21:28.557Z,30.40
2023-05-11T03:23:58.194Z,30.90
2023-05-11T03:26:30.060Z,29.40
2023-05-11T03:29:00.260Z,31.60
2023-05-11T03:31:28.245Z,31.17
2023-05-11T03:33:56.343Z,33.38
2023-05-11T03:36:27.816Z,29.08
2023-05-11T03:38:57.572Z,31.50
2023-05-11T03:41:29.080Z,30.05
2023-05-11T03:44:00.300Z,31.50
2023-05-11T03:46:29.779Z,33.03
2023-05-11T03:49:02.409Z,31.35
2023-05-11T03:53:59.942Z,29.27
2023-05-11T03:56:28.035Z,30.73
2023-05-11T03:58:56.072Z,32.53
2023-05-11T04:01:24.240Z,31.63
2023-05-11T04:03:53.540Z,33.78
2023-05-11T04:06:21.637Z,33.05
2023-05-11T04:08:51.050Z,32.83
2023-05-11T04:11:18.850Z,34.50
2023-05-11T04:13:47.462Z,35.88
2023-05-11T04:16:15.269Z,34.80
2023-05-11T04:18:43.146Z,36.35
2023-05-11T04:21:11.188Z,37.78
2023-05-11T04:23:39.334Z,36.75
2023-05-11T04:26:08.940Z,39.90
2023-05-11T04:28:36.900Z,41.15
2023-05-11T04:31:04.875Z,45.05
2023-05-11T04:33:32.726Z,43.45
2023-05-11T04:36:00.582Z,43.45
2023-05-11T04:38:28.431Z,43.72
2023-05-11T04:40:56.193Z,46.80
2023-05-11T04:43:25.406Z,49.78
2023-05-11T04:45:53.114Z,45.05
2023-05-11T04:48:21.174Z,48.67
2023-05-11T04:50:48.944Z,42.05
2023-05-11T04:53:16.852Z,39.00
2023-05-11T04:55:44.649Z,33.97
2023-05-11T04:58:12.634Z,37.60
2023-05-11T05:00:41.971Z,39.10
2023-05-11T05:03:09.807Z,40.67
2023-05-11T05:05:37.909Z,41.55
2023-05-11T05:08:05.895Z,41.20
2023-05-11T05:10:33.827Z,34.17
2023-05-11T05:13:01.670Z,37.58
2023-05-11T05:15:29.628Z,40.28
2023-05-11T05:17:58.962Z,36.80
2023-05-11T05:20:27.445Z,35.78
2023-05-11T05:22:55.242Z,36.53
2023-05-11T05:25:23.336Z,38.50
2023-05-11T05:27:51.038Z,34.72
2023-05-11T05:30:19.020Z,35.63
2023-05-11T05:32:46.927Z,32.70
2023-05-11T05:35:16.168Z,36.90
2023-05-11T05:37:43.890Z,37.42
2023-05-11T05:40:12.281Z,35.40
2023-05-11T05:42:40.172Z,36.72
2023-05-11T05:45:09.184Z,36.55
2023-05-11T05:47:37.237Z,35.20
2023-05-11T05:50:05.982Z,32.65
2023-05-11T05:52:35.486Z,31.00
2023-05-11T05:55:03.264Z,34.17
2023-05-11T05:57:31.299Z,33.33
2023-05-11T05:59:59.113Z,29.27
2023-05-11T06:02:26.939Z,27.67
2023-05-11T06:04:54.832Z,31.45
2023-05-11T06:07:22.620Z,33.72
2023-05-11T06:09:51.869Z,38.38
2023-05-11T06:12:19.541Z,34.97
2023-05-11T06:14:47.259Z,40.92
2023-05-11T06:17:14.955Z,38.47
2023-05-11T06:19:42.733Z,38.03
2023-05-11T06:22:10.442Z,41.58
2023-05-11T06:24:38.188Z,42.08
2023-05-11T06:27:07.375Z,35.28
2023-05-11T06:29:35.140Z,39.25
2023-05-11T06:32:02.984Z,40.05
2023-05-11T06:34:30.874Z,36.88
2023-05-11T06:37:00.222Z,41.00
2023-05-11T06:39:27.963Z,33.17
2023-05-11T06:41:57.075Z,34.88
2023-05-11T06:44:27.905Z,41.80
2023-05-11T06:46:55.633Z,36.92
2023-05-11T06:49:23.403Z,36.58
2023-05-11T06:51:51.197Z,36.53
2023-05-11T06:54:19.016Z,37.05
2023-05-11T06:56:46.803Z,36.28
2023-05-11T06:59:14.660Z,41.70
2023-05-11T07:01:44.189Z,36.50
2023-05-11T07:04:11.976Z,39.95
2023-05-11T07:06:39.802Z,38.05
2023-05-11T07:09:08.019Z,39.88
2023-05-11T07:11:38.098Z,39.55
2023-05-11T07:14:05.926Z,35.20
2023-05-11T07:16:37.855Z,34.33
2023-05-11T07:19:08.243Z,34.53
2023-05-11T07:21:36.334Z,37.63
2023-05-11T07:24:04.300Z,36.70
2023-05-11T07:26:32.203Z,34.63
2023-05-11T07:28:59.944Z,36.55
2023-05-11T07:31:29.975Z,36.70
2023-05-11T07:33:57.748Z,35.30
2023-05-11T07:36:26.963Z,35.38
2023-05-11T07:38:54.759Z,32.92
2023-05-11T07:41:26.126Z,30.73
2023-05-11T07:43:53.975Z,28.38
2023-05-11T07:46:21.810Z,30.17
2023-05-11T07:48:51.672Z,31.52
2023-05-11T07:51:26.815Z,28.00
2023-05-11T07:53:54.588Z,30.45
2023-05-11T07:56:22.334Z,28.13
2023-05-11T07:58:50.192Z,27.98
2023-05-11T08:01:17.971Z,26.27
2023-05-11T08:03:45.730Z,26.40
2023-05-11T08:06:13.530Z,27.00
2023-05-11T08:08:42.875Z,25.48
2023-05-11T08:11:10.949Z,27.30
2023-05-11T08:13:38.717Z,26.00
2023-05-11T08:16:07.742Z,25.10
2023-05-11T08:18:35.782Z,27.85
2023-05-11T08:21:03.681Z,26.88
2023-05-11T08:23:31.744Z,26.45
2023-05-11T08:26:01.203Z,27.45
2023-05-11T08:28:28.950Z,27.52
2023-05-11T08:30:57.574Z,29.08
2023-05-11T08:33:37.474Z,30.98
2023-05-11T08:36:07.459Z,30.27
2023-05-11T08:38:36.508Z,27.95
2023-05-11T08:41:07.663Z,29.60
2023-05-11T08:43:36.872Z,29.60
2023-05-11T08:46:07.364Z,27.17
2023-05-11T08:48:35.492Z,28.05
2023-05-11T08:51:04.245Z,25.83
2023-05-11T08:53:32.677Z,27.30
2023-05-11T08:56:02.384Z,27.20
2023-05-11T08:58:33.089Z,32.10
2023-05-11T09:01:00.929Z,29.48
2023-05-11T09:03:31.245Z,28.23
2023-05-11T09:06:01.149Z,27.13
2023-05-11T09:08:32.336Z,27.08
2023-05-11T09:11:00.946Z,28.25
2023-05-11T09:13:28.726Z,27.88
2023-05-11T09:15:57.876Z,28.40
2023-05-11T09:18:25.822Z,29.50
2023-05-11T09:20:53.576Z,29.23
2023-05-11T09:23:25.973Z,28.85
2023-05-11T09:28:26.940Z,26.92
2023-05-11T09:30:55.287Z,27.58
2023-05-11T09:33:26.105Z,29.42
2023-05-11T09:35:54.543Z,28.40
2023-05-11T09:38:23.208Z,28.13
2023-05-11T09:40:53.333Z,29.38
2023-05-11T09:43:22.998Z,28.25
2023-05-11T09:45:52.536Z,28.88
2023-05-11T09:48:30.098Z,28.27
2023-05-11T09:51:03.803Z,24.90
2023-05-11T09:53:43.901Z,27.30
2023-05-11T09:56:12.371Z,26.15
2023-05-11T09:58:48.339Z,24.33
2023-05-11T10:01:16.579Z,27.00
2023-05-11T10:03:50.373Z,26.83
2023-05-11T10:06:20.451Z,25.42
2023-05-11T10:08:49.053Z,27.63
2023-05-11T10:11:16.925Z,29.45
2023-05-11T10:13:45.970Z,27.00
2023-05-11T10:16:17.157Z,26.98
2023-05-11T10:18:45.944Z,29.98
2023-05-11T10:21:16.583Z,28.60
2023-05-11T10:23:44.661Z,28.20
2023-05-11T10:26:13.037Z,30.05
2023-05-11T10:28:41.327Z,29.95
2023-05-11T10:31:11.426Z,28.05
2023-05-11T10:33:40.009Z,28.63
2023-05-11T10:36:10.142Z,28.77
2023-05-11T10:38:39.689Z,29.55
2023-05-11T10:41:21.761Z,29.50
2023-05-11T10:44:12.816Z,27.52
2023-05-11T10:46:55.594Z,27.58
2023-05-11T10:49:39.258Z,27.27
2023-05-11T10:52:22.070Z,30.58
2023-05-11T10:55:06.795Z,28.20
2023-05-11T10:57:44.684Z,26.95
2023-05-11T11:00:52.625Z,27.73
2023-05-11T11:03:20.684Z,29.20
2023-05-11T11:05:48.647Z,29.13
2023-05-11T11:08:16.634Z,27.65
2023-05-11T11:10:46.750Z,30.05
2023-05-11T11:13:16.957Z,29.60
2023-05-11T11:16:14.753Z,29.17
2023-05-11T11:18:44.202Z,28.73
2023-05-11T11:21:15.647Z,30.98
2023-05-11T11:23:45.548Z,27.27
2023-05-11T11:26:16.547Z,25.98
2023-05-11T11:29:09.671Z,27.75
2023-05-11T11:31:38.516Z,24.75
2023-05-11T11:34:37.378Z,27.65
2023-05-11T11:37:06.129Z,26.40
2023-05-11T11:40:13.014Z,26.08
2023-05-11T11:42:44.387Z,23.67
2023-05-11T11:45:33.218Z,26.67
2023-05-11T11:48:09.176Z,28.08
2023-05-11T11:50:37.186Z,24.85
2023-05-11T11:53:05.533Z,28.05
2023-05-11T11:55:47.250Z,23.42
2023-05-11T11:58:59.272Z,27.00
2023-05-11T12:01:28.289Z,27.58
2023-05-11T12:04:24.977Z,26.92
2023-05-11T12:06:58.062Z,24.70
2023-05-11T12:09:26.575Z,24.80
2023-05-11T12:11:54.708Z,24.60
2023-05-11T12:14:24.718Z,23.67
2023-05-11T12:17:13.554Z,22.70
2023-05-11T12:19:43.198Z,23.52
2023-05-11T12:22:13.965Z,22.63
2023-05-11T12:24:42.383Z,24.45
2023-05-11T12:27:10.444Z,22.80
2023-05-11T12:29:40.853Z,23.73
2023-05-11T12:32:13.594Z,23.00
2023-05-11T12:34:41.659Z,25.30
2023-05-11T12:37:09.730Z,22.85
2023-05-11T12:39:37.774Z,26.58
2023-05-11T12:42:06.195Z,25.17
2023-05-11T12:44:36.709Z,27.45
2023-05-11T12:47:14.318Z,27.73
2023-05-11T12:49:43.661Z,27.30
2023-05-11T12:52:12.425Z,26.52
2023-05-11T12:54:41.817Z,26.58
2023-05-11T12:57:24.122Z,25.67
2023-05-11T13:00:08.133Z,25.77
2023-05-11T13:02:44.675Z,25.70
2023-05-11T13:05:14.353Z,24.55
2023-05-11T13:07:44.056Z,25.55
2023-05-11T13:10:13.721Z,23.30
2023-05-11T13:12:51.886Z,24.58
2023-05-11T13:15:21.850Z,24.58
2023-05-11T13:17:58.581Z,25.67
2023-05-11T13:20:27.930Z,26.67
2023-05-11T13:23:05.750Z,26.00
2023-05-11T13:25:34.816Z,26.08
2023-05-11T13:28:03.079Z,27.17
2023-05-11T13:30:32.800Z,26.48
2023-05-11T13:33:04.046Z,26.60
2023-05-11T13:35:32.158Z,25.70
2023-05-11T13:38:00.266Z,26.33
2023-05-11T13:40:28.194Z,25.60
2023-05-11T13:42:56.855Z,23.10
2023-05-11T13:45:24.986Z,24.08
2023-05-11T13:47:53.073Z,23.15
2023-05-11T13:50:22.910Z,23.13
2023-05-11T13:52:52.176Z,22.00
2023-05-11T13:55:20.425Z,21.10
2023-05-11T13:57:48.855Z,21.33
2023-05-11T14:00:17.725Z,21.73
2023-05-11T14:02:54.596Z,21.38
2023-05-11T14:05:23.837Z,21.80
2023-05-11T14:07:51.694Z,21.02
2023-05-11T14:10:21.791Z,21.00
2023-05-11T14:12:49.581Z,20.05
2023-05-11T14:15:20.860Z,18.65
2023-05-11T14:17:49.185Z,18.27
2023-05-11T14:20:17.171Z,15.65
2023-05-11T14:22:46.807Z,15.77
2023-05-11T14:25:14.809Z,14.48
2023-05-11T14:27:44.877Z,14.45
2023-05-11T14:30:13.307Z,13.10
2023-05-11T14:32:41.142Z,12.07
2023-05-11T14:35:09.469Z,13.00
2023-05-11T14:37:37.895Z,9.30
2023-05-11T14:40:08.450Z,6.85
2023-05-11T14:42:36.461Z,7.80
2023-05-11T14:45:04.456Z,7.93
2023-05-11T14:47:32.431Z,7.60
2023-05-11T14:50:00.422Z,6.70
2023-05-11T14:52:30.367Z,5.75
2023-05-11T14:54:58.129Z,6.20
2023-05-11T14:57:27.409Z,6.93
2023-05-11T15:00:00.217Z,6.00
2023-05-11T15:02:28.689Z,5.95
2023-05-11T15:04:56.507Z,4.13
2023-05-11T15:07:24.190Z,3.30
2023-05-11T15:09:52.041Z,3.92
2023-05-11T15:12:19.784Z,3.58
2023-05-11T15:14:49.074Z,3.70
2023-05-11T15:17:16.798Z,4.10
2023-05-11T15:19:44.537Z,4.22
2023-05-11T15:22:17.514Z,4.70
2023-05-11T15:24:45.501Z,4.90
2023-05-11T15:27:13.576Z,4.93
2023-05-11T15:29:41.500Z,14.52
2023-05-11T15:32:14.242Z,5.75
2023-05-11T15:34:55.479Z,4.43
2023-05-11T15:37:26.764Z,4.70
2023-05-11T15:39:54.548Z,4.65
2023-05-11T15:42:22.255Z,4.28
2023-05-11T15:44:49.971Z,4.72
2023-05-11T15:47:19.061Z,4.70
2023-05-11T15:49:46.828Z,4.72
2023-05-11T15:52:14.562Z,4.90
2023-05-11T15:54:42.378Z,4.72
2023-05-11T15:57:10.256Z,4.20
2023-05-11T15:59:38.647Z,4.65
2023-05-11T16:02:06.498Z,5.30
2023-05-11T16:04:35.894Z,4.53
2023-05-11T16:07:04.422Z,4.53
2023-05-11T16:09:32.201Z,4.90
2023-05-11T16:12:00.077Z,4.93
2023-05-11T16:14:27.889Z,4.70
2023-05-11T16:16:59.372Z,5.55
2023-05-11T16:19:27.378Z,5.60
2023-05-11T16:21:56.685Z,5.00
2023-05-11T16:24:24.463Z,6.32
2023-05-11T16:26:52.288Z,5.50
2023-05-11T16:29:20.030Z,5.60
2023-05-11T16:31:48.096Z,5.80
2023-05-11T16:34:15.862Z,5.25
2023-05-11T16:36:43.642Z,4.80
2023-05-11T16:39:13.028Z,5.25
2023-05-11T16:41:40.902Z,5.35
2023-05-11T16:44:08.712Z,6.15
2023-05-11T16:46:36.843Z,6.28
2023-05-11T16:49:04.562Z,5.68
2023-05-11T16:51:33.890Z,7.30
2023-05-11T16:54:01.581Z,6.45
2023-05-11T16:56:30.753Z,5.80
2023-05-11T16:58:58.462Z,6.07
2023-05-11T17:01:26.213Z,5.50
2023-05-11T17:03:54.054Z,8.00
2023-05-11T17:06:23.862Z,5.50
2023-05-11T17:08:53.613Z,5.68
2023-05-11T17:11:21.487Z,6.07
2023-05-11T17:13:57.304Z,5.75
2023-05-11T17:16:25.313Z,5.60
2023-05-11T17:18:59.284Z,28.30
2023-05-11T17:21:27.288Z,11.60
2023-05-11T17:23:58.361Z,5.03
2023-05-11T17:26:32.592Z,4.10
2023-05-11T17:29:13.177Z,3.78
2023-05-11T17:31:42.133Z,3.53
2023-05-11T17:34:10.404Z,4.32
2023-05-11T17:36:38.917Z,4.22
2023-05-11T17:39:06.635Z,4.60
2023-05-11T17:41:34.408Z,3.65
2023-05-11T17:44:02.045Z,4.57
2023-05-11T17:46:37.477Z,4.45
2023-05-11T17:49:06.403Z,3.95
2023-05-11T17:51:34.219Z,4.60
2023-05-11T17:54:01.964Z,4.45
2023-05-11T17:56:29.772Z,4.90
2023-05-11T17:58:57.497Z,5.25
2023-05-11T18:01:27.338Z,4.90
2023-05-11T18:03:58.354Z,5.68
2023-05-11T18:06:27.037Z,6.18
2023-05-11T18:08:54.888Z,6.07
2023-05-11T18:11:22.976Z,5.75
2023-05-11T18:13:50.952Z,5.77
2023-05-11T18:16:18.838Z,6.53
2023-05-11T18:18:46.678Z,6.30
2023-05-11T18:21:19.113Z,7.25
2023-05-11T18:26:14.764Z,6.55
2023-05-11T18:28:42.612Z,6.38
2023-05-11T18:31:10.346Z,7.55
2023-05-11T18:33:38.251Z,6.38
2023-05-11T18:36:06.591Z,5.95
2023-05-11T18:38:35.840Z,7.95
2023-05-11T18:41:05.659Z,6.97
2023-05-11T18:43:34.285Z,6.10
2023-05-11T18:46:02.072Z,6.65
2023-05-11T18:48:29.770Z,6.43
2023-05-11T18:50:57.820Z,6.30
2023-05-11T18:53:25.611Z,6.40
2023-05-11T18:55:54.859Z,7.10
2023-05-11T18:58:23.556Z,6.72
2023-05-11T19:00:52.342Z,6.60
2023-05-11T19:03:22.133Z,7.03
2023-05-11T19:05:50.605Z,6.45
2023-05-11T19:08:18.593Z,5.88
2023-05-11T19:10:47.956Z,7.82
2023-05-11T19:13:17.144Z,6.47
2023-05-11T19:15:45.010Z,6.13
2023-05-11T19:18:12.853Z,6.72
2023-05-11T19:20:40.727Z,7.90
2023-05-11T19:23:08.487Z,9.70
2023-05-11T19:25:36.683Z,8.75
2023-05-11T19:28:04.540Z,9.05
2023-05-11T19:30:33.783Z,10.85
2023-05-11T19:33:01.669Z,14.50
2023-05-11T19:35:29.983Z,11.43
2023-05-11T19:37:57.864Z,10.88
2023-05-11T19:40:45.178Z,10.20
2023-05-11T19:43:13.990Z,11.30
2023-05-11T19:45:44.124Z,14.30
2023-05-11T19:48:12.065Z,11.75
2023-05-11T19:50:39.862Z,10.75
2023-05-11T19:53:07.801Z,14.80
2023-05-11T19:55:38.100Z,11.88
2023-05-11T19:58:06.901Z,13.13
2023-05-11T20:00:34.889Z,13.73
2023-05-11T20:03:04.675Z,12.18
2023-05-11T20:05:32.642Z,12.13
2023-05-11T20:08:01.289Z,13.48
2023-05-11T20:10:29.257Z,16.48
2023-05-11T20:12:58.137Z,14.45
2023-05-11T20:15:26.360Z,16.55
2023-05-11T20:17:54.280Z,15.75
2023-05-11T20:20:23.968Z,15.20
2023-05-11T20:22:52.059Z,15.60
2023-05-11T20:25:20.030Z,15.00
2023-05-11T20:27:47.942Z,14.93
2023-05-11T20:30:16.527Z,14.80
2023-05-11T20:35:15.611Z,16.45
2023-05-11T20:37:44.911Z,15.38
2023-05-11T20:40:13.987Z,15.80
2023-05-11T20:42:41.918Z,16.05
2023-05-11T20:45:10.727Z,15.55
2023-05-11T20:47:38.817Z,15.68
2023-05-11T20:50:08.483Z,15.25
2023-05-11T20:52:36.749Z,16.05
2023-05-11T20:55:07.186Z,16.67
2023-05-11T20:57:35.291Z,17.08
2023-05-11T21:00:05.527Z,17.73
2023-05-11T21:02:33.455Z,20.27
2023-05-11T21:05:02.730Z,19.80
2023-05-11T21:07:30.948Z,19.83
2023-05-11T21:09:58.859Z,20.35
2023-05-11T21:12:28.372Z,23.75
2023-05-11T21:14:57.162Z,19.45
2023-05-11T21:17:40.810Z,25.15
2023-05-11T21:20:50.239Z,19.83
2023-05-11T21:23:48.897Z,21.10
2023-05-11T21:26:38.802Z,21.30
2023-05-11T21:29:21.096Z,19.55
2023-05-11T21:32:02.257Z,23.73
2023-05-11T21:34:58.190Z,20.25
2023-05-11T21:37:36.678Z,21.20
2023-05-11T21:40:17.641Z,17.40
2023-05-11T21:42:46.406Z,20.38
2023-05-11T21:45:34.538Z,21.70
2023-05-11T21:48:02.597Z,22.90
2023-05-11T21:50:30.769Z,18.60
2023-05-11T21:52:59.210Z,22.23
2023-05-11T21:55:27.287Z,19.92
2023-05-11T21:57:55.735Z,20.70
2023-05-11T22:00:24.344Z,26.27
2023-05-11T22:02:54.129Z,23.58
2023-05-11T22:05:22.639Z,21.65
2023-05-11T22:07:53.931Z,22.10
2023-05-11T22:10:24.578Z,24.60
2023-05-11T22:12:53.145Z,29.63
2023-05-11T22:15:22.687Z,24.33
2023-05-11T22:17:50.955Z,23.80
2023-05-11T22:20:20.918Z,24.27
2023-05-11T22:22:49.050Z,26.52
2023-05-11T22:25:17.230Z,29.50
2023-05-11T22:27:45.422Z,27.83
2023-05-11T22:30:14.016Z,27.20
2023-05-11T22:32:42.188Z,24.90
2023-05-11T22:35:11.016Z,26.90
2023-05-11T22:37:40.855Z,24.27
2023-05-11T22:40:10.082Z,25.35
2023-05-11T22:42:38.398Z,31.40
2023-05-11T22:45:07.664Z,27.33
2023-05-11T22:47:35.848Z,26.13
2023-05-11T22:50:04.403Z,22.50
2023-05-11T22:52:32.468Z,24.08
2023-05-11T22:55:01.891Z,23.10
2023-05-11T22:57:29.994Z,22.42
2023-05-11T22:59:58.458Z,21.42
2023-05-11T23:02:26.504Z,21.83
2023-05-11T23:04:54.600Z,21.13
2023-05-11T23:07:22.746Z,21.20
2023-05-11T23:09:52.590Z,20.40
2023-05-11T23:12:22.806Z,20.65
2023-05-11T23:14:51.185Z,21.27
2023-05-11T23:17:19.686Z,20.15
2023-05-11T23:19:48.151Z,20.40
2023-05-11T23:22:16.616Z,20.98
2023-05-11T23:24:44.823Z,18.60
2023-05-11T23:27:13.173Z,20.10
2023-05-11T23:29:42.850Z,19.70
2023-05-11T23:32:10.899Z,18.65
2023-05-11T23:34:39.158Z,18.92
2023-05-11T23:37:07.460Z,19.70
2023-05-11T23:39:35.474Z,16.85
2023-05-11T23:42:04.318Z,17.45
2023-05-11T23:44:32.274Z,16.02
2023-05-11T23:47:01.851Z,15.82
2023-05-11T23:49:30.372Z,18.05
2023-05-11T23:51:58.712Z,15.30
2023-05-11T23:54:26.691Z,16.73
2023-05-11T23:56:54.643Z,14.85
2023-05-11T23:59:22.530Z,13.68
